Impacts METAR Board INFO
IDs:

KLAX - Los Angeles Intl, CA, US

Updated at: 0341 UTC 19 Feb 2018
Potential Impact None Slight Moderate High
Time18/15Z 18/16Z 18/17Z 18/18Z 18/19Z 18/20Z 18/21Z 18/22Z 18/23Z 19/00Z 19/01Z 19/02Z 19/03Z
VIS10 10 10 10 10 10 10 10 10 10 10 10 10
CIG100 -- -- -- -- -- -- -- -- -- -- -- --
CoverBKNSCTSCTSCTSCTSCTSCTFEWFEWFEWSCTSCTSCT
FltCatVFRVFRVFRVFRVFRVFRVFRVFRVFRVFRVFRVFRVFR
WX--------------------------
WDir070260250250280260250260240240250250
WSpd0 3 5 7 7 9 13 12 12 13 13 9 8
WGst-- -- -- -- -- -- -- -- -- -- -- -- --
Raw hourly METARs
KLAX 181453Z 00000KT 10SM SCT008 BKN100 BKN230 11/06 A2999 RMK AO2 SLP154 T01110056 55001
KLAX 181553Z 07003KT 10SM SCT013 SCT230 13/07 A3000 RMK AO2 SLP159 T01330067
KLAX 181653Z 26005KT 10SM FEW014 FEW026 SCT230 15/10 A3001 RMK AO2 SLP161 T01500100
KLAX 181753Z 25007KT 10SM FEW014 FEW026 SCT230 16/11 A3001 RMK AO2 SLP160 T01610111 10161 20106 50006
KLAX 181853Z 25007KT 210V270 10SM FEW026 FEW095 SCT230 18/11 A2999 RMK AO2 SLP155 T01780111
KLAX 181953Z 28009KT 10SM FEW018 FEW027 SCT090 SCT230 18/10 A2998 RMK AO2 SLP150 T01780100
KLAX 182053Z 26013KT 10SM FEW018 FEW027 SCT090 SCT230 17/11 A2995 RMK AO2 SLP141 T01670106 58020
KLAX 182153Z 25012KT 10SM FEW027 FEW230 17/11 A2992 RMK AO2 SLP132 T01720106
KLAX 182253Z 26012KT 10SM FEW027 17/11 A2991 RMK AO2 SLP129 T01670106
KLAX 182353Z 24013KT 10SM FEW025 16/11 A2990 RMK AO2 SLP125 T01610106 10178 20161 56015
KLAX 190053Z 24013KT 10SM SCT018 16/10 A2990 RMK AO2 SLP123 T01560100
KLAX 190153Z 25009KT 10SM SCT020 14/10 A2989 RMK AO2 SLP121 T01440100
KLAX 190253Z 25008KT 10SM SCT020 14/09 A2989 RMK AO2 SLP121 T01390094 55004